Time;durP1;ratioP1;P1;durP2;ratioP2;P2;SDS_P1;SDS_P2;PMS_P1;PMS_P2;Temp;Humidity;BMP_temperature;BMP_pressure;BME280_temperature;BME280_humidity;BME280_pressure;Samples;Min_cycle;Max_cycle;Signal;HPM_P1;HPM_P2
2022/12/22 03:26:29;;;;;;;61.13;25.05;;;8.50;99.90;;;;;;5013586;28;20541;-80
2022/12/22 03:28:55;;;;;;;56.85;26.00;;;8.50;99.90;;;;;;5022307;28;20140;-80
2022/12/22 03:31:20;;;;;;;43.35;23.08;;;8.50;99.90;;;;;;5018686;28;20041;-80
2022/12/22 03:33:46;;;;;;;41.83;21.48;;;8.40;99.90;;;;;;5012668;28;20048;-80
2022/12/22 03:36:12;;;;;;;42.28;22.58;;;8.40;99.90;;;;;;5012893;28;20033;-80
2022/12/22 03:38:37;;;;;;;39.97;21.83;;;8.50;99.90;;;;;;5012308;28;20042;-80
2022/12/22 03:41:03;;;;;;;46.28;22.73;;;8.40;99.90;;;;;;5021499;28;20550;-80
2022/12/22 03:46:30;;;;;;;49.80;22.95;;;8.40;99.90;;;;;;5015896;28;20046;-80
2022/12/22 03:49:09;;;;;;;39.17;20.35;;;8.50;99.90;;;;;;5008839;28;20124;-80
2022/12/22 03:51:46;;;;;;;44.65;23.23;;;8.40;99.90;;;;;;5008431;28;20052;-80
2022/12/22 03:54:15;;;;;;;45.03;23.08;;;8.50;99.90;;;;;;5018296;28;20048;-80
2022/12/22 03:56:41;;;;;;;70.40;27.65;;;8.50;99.90;;;;;;5021807;28;20053;-80
2022/12/22 03:59:07;;;;;;;50.53;24.58;;;8.50;99.90;;;;;;5012710;28;20117;-80
2022/12/22 04:01:37;;;;;;;58.03;27.02;;;8.40;99.90;;;;;;5008324;28;20135;-80
2022/12/22 04:04:02;;;;;;;45.95;23.13;;;8.40;99.90;;;;;;5009490;28;20064;-80
2022/12/22 04:06:28;;;;;;;49.63;24.73;;;8.50;99.90;;;;;;5014649;28;20034;-80
2022/12/22 04:08:54;;;;;;;57.35;27.15;;;8.40;99.90;;;;;;5014822;28;20045;-80
2022/12/22 04:14:04;;;;;;;55.10;25.85;;;8.40;99.90;;;;;;5013941;28;20053;-81
2022/12/22 04:16:30;;;;;;;52.53;25.85;;;8.40;99.90;;;;;;5007058;28;20050;-80
2022/12/22 04:18:57;;;;;;;49.15;24.92;;;8.40;99.90;;;;;;5008428;28;20048;-80
2022/12/22 04:21:22;;;;;;;55.53;25.70;;;8.40;99.90;;;;;;5020474;28;20037;-80
2022/12/22 04:23:50;;;;;;;65.57;28.70;;;8.40;99.90;;;;;;5017775;28;20092;-80
2022/12/22 04:26:17;;;;;;;48.25;25.52;;;8.40;99.90;;;;;;5014077;28;20034;-80
2022/12/22 04:28:43;;;;;;;58.15;27.83;;;8.40;99.90;;;;;;5019090;28;20074;-80
2022/12/22 04:31:09;;;;;;;62.65;27.80;;;8.40;99.90;;;;;;5013114;28;20813;-80
2022/12/22 04:33:34;;;;;;;50.85;25.88;;;8.40;99.90;;;;;;5008390;28;20056;-80
2022/12/22 04:36:00;;;;;;;77.18;30.25;;;8.40;99.90;;;;;;5011237;28;20077;-80
2022/12/22 04:38:25;;;;;;;65.20;28.75;;;8.40;99.90;;;;;;5003535;28;20053;-80
2022/12/22 04:40:51;;;;;;;71.55;28.55;;;8.40;99.90;;;;;;5015781;28;20053;-80
2022/12/22 04:43:17;;;;;;;72.43;29.45;;;8.40;99.90;;;;;;5034960;28;20037;-80
2022/12/22 04:45:43;;;;;;;67.47;27.35;;;8.40;99.90;;;;;;5016331;28;20041;-80
2022/12/22 04:48:08;;;;;;;82.32;30.63;;;8.40;99.90;;;;;;5009567;28;20049;-80
2022/12/22 04:50:34;;;;;;;76.97;29.00;;;8.50;99.90;;;;;;4996320;28;20052;-79
2022/12/22 04:53:00;;;;;;;77.80;27.88;;;8.40;99.90;;;;;;5015166;28;20044;-79
2022/12/22 04:55:25;;;;;;;87.38;29.33;;;8.40;99.90;;;;;;5013060;28;20517;-80
2022/12/22 04:57:51;;;;;;;73.40;28.88;;;8.40;99.90;;;;;;5009968;28;20033;-80
2022/12/22 05:00:17;;;;;;;88.38;30.50;;;8.40;99.90;;;;;;5009787;28;20042;-80
2022/12/22 05:02:43;;;;;;;68.70;27.65;;;8.40;99.90;;;;;;5012859;28;20481;-80
2022/12/22 05:05:08;;;;;;;76.05;27.90;;;8.40;99.90;;;;;;5010002;28;20049;-80
2022/12/22 05:07:34;;;;;;;76.57;28.50;;;8.40;99.90;;;;;;5009149;28;20045;-80
2022/12/22 05:10:00;;;;;;;83.28;28.85;;;8.40;99.90;;;;;;5012703;28;20459;-80
2022/12/22 05:15:10;;;;;;;77.38;27.23;;;8.40;99.90;;;;;;5025522;28;20050;-80
2022/12/22 05:17:35;;;;;;;93.32;30.17;;;8.40;99.90;;;;;;5008334;28;20981;-80
2022/12/22 05:20:01;;;;;;;93.03;30.63;;;8.40;99.90;;;;;;5015802;28;20045;-80
2022/12/22 05:22:27;;;;;;;79.82;30.15;;;8.40;99.90;;;;;;5008709;28;20065;-80
2022/12/22 05:24:53;;;;;;;76.55;28.88;;;8.40;99.90;;;;;;5014039;28;20042;-80
2022/12/22 05:27:18;;;;;;;84.20;28.67;;;8.40;99.90;;;;;;5011307;28;20037;-79
2022/12/22 05:29:44;;;;;;;72.80;27.45;;;8.40;99.90;;;;;;5016809;28;20099;-79
2022/12/22 05:32:09;;;;;;;71.07;26.73;;;8.40;99.90;;;;;;4994355;28;20402;-80
2022/12/22 05:34:35;;;;;;;83.03;28.50;;;8.40;99.90;;;;;;4996106;28;20531;-80
2022/12/22 05:37:01;;;;;;;85.40;28.48;;;8.40;99.90;;;;;;5013585;28;20041;-80
2022/12/22 05:39:26;;;;;;;93.28;32.00;;;8.40;99.90;;;;;;4971020;28;1057355;-80
2022/12/22 05:41:52;;;;;;;91.93;29.67;;;8.40;99.90;;;;;;5014153;28;20038;-80
2022/12/22 05:44:17;;;;;;;99.18;31.02;;;8.40;99.90;;;;;;5011105;28;20046;-80
2022/12/22 05:46:43;;;;;;;88.10;29.70;;;8.40;99.90;;;;;;5015681;28;20073;-80
2022/12/22 05:49:09;;;;;;;102.47;29.83;;;8.30;99.90;;;;;;5001945;28;20072;-80
2022/12/22 05:51:34;;;;;;;91.82;29.25;;;8.40;99.90;;;;;;5021971;28;20393;-80
2022/12/22 05:54:00;;;;;;;90.63;29.60;;;8.30;99.90;;;;;;5021902;28;20038;-80
2022/12/22 05:56:25;;;;;;;82.10;28.23;;;8.30;99.90;;;;;;5021318;28;20042;-80
2022/12/22 05:58:51;;;;;;;88.35;28.67;;;8.30;99.90;;;;;;5009758;28;20050;-79
2022/12/22 06:01:17;;;;;;;81.47;28.20;;;8.30;99.90;;;;;;5003348;28;20038;-80
2022/12/22 06:03:42;;;;;;;67.65;26.13;;;8.30;99.90;;;;;;4997462;28;20046;-80
2022/12/22 06:06:08;;;;;;;84.22;28.55;;;8.30;99.90;;;;;;5011342;28;20435;-80
2022/12/22 06:08:34;;;;;;;80.20;29.17;;;8.80;99.90;;;;;;5013474;28;20053;-80
2022/12/22 06:10:59;;;;;;;80.53;27.23;;;8.20;99.90;;;;;;5016424;28;20045;-80
2022/12/22 06:13:26;;;;;;;89.57;29.48;;;8.20;99.90;;;;;;5008989;28;20133;-80
2022/12/22 06:15:51;;;;;;;82.72;28.80;;;8.20;99.90;;;;;;5019426;28;20041;-79
2022/12/22 06:18:17;;;;;;;83.90;30.48;;;8.20;99.90;;;;;;5014934;28;20038;-80
2022/12/22 06:20:45;;;;;;;91.70;31.13;;;8.20;99.90;;;;;;5021515;28;20046;-82
2022/12/22 06:23:11;;;;;;;95.43;30.88;;;8.10;99.90;;;;;;5013499;28;20038;-80
2022/12/22 06:25:36;;;;;;;93.07;30.40;;;8.10;99.90;;;;;;5020313;28;20052;-80
2022/12/22 06:28:02;;;;;;;84.40;29.48;;;8.10;99.90;;;;;;5010137;28;20028;-79
2022/12/22 06:30:28;;;;;;;84.15;27.55;;;8.10;99.90;;;;;;5013026;28;20068;-79
2022/12/22 06:32:53;;;;;;;91.45;30.40;;;8.10;99.90;;;;;;5016391;28;20113;-80
2022/12/22 06:35:19;;;;;;;83.07;29.08;;;8.10;99.90;;;;;;5010022;28;20042;-80
2022/12/22 06:37:45;;;;;;;94.72;27.70;;;8.30;99.90;;;;;;5024330;28;20068;-80
2022/12/22 06:40:11;;;;;;;72.25;25.75;;;8.00;99.90;;;;;;5010056;28;20365;-80
2022/12/22 06:45:20;;;;;;;57.65;25.38;;;7.90;99.90;;;;;;5018250;28;20037;-80
2022/12/22 06:47:46;;;;;;;68.78;26.10;;;7.80;99.90;;;;;;5017347;28;20046;-80
2022/12/22 06:50:12;;;;;;;77.85;25.83;;;7.70;99.90;;;;;;5020715;28;20520;-80
2022/12/22 06:52:39;;;;;;;76.47;26.48;;;7.60;99.90;;;;;;5022594;28;20470;-80
2022/12/22 06:55:06;;;;;;;69.68;26.02;;;7.50;99.90;;;;;;5021522;28;20168;-80
2022/12/22 06:57:31;;;;;;;73.10;27.10;;;7.50;99.90;;;;;;5012176;28;20038;-80
2022/12/22 06:59:57;;;;;;;75.95;26.33;;;7.40;99.90;;;;;;5009030;28;20052;-80
2022/12/22 07:02:22;;;;;;;76.22;28.02;;;7.30;99.90;;;;;;5016180;28;20033;-80
2022/12/22 07:04:48;;;;;;;75.75;27.58;;;7.20;99.90;;;;;;5011822;28;20750;-80
2022/12/22 07:07:14;;;;;;;74.70;26.88;;;7.20;99.90;;;;;;5010733;28;20088;-80
2022/12/22 07:09:39;;;;;;;82.95;28.45;;;7.10;99.90;;;;;;4999059;28;20045;-79
2022/12/22 07:12:05;;;;;;;87.15;33.58;;;7.10;99.90;;;;;;5012992;28;20085;-80
2022/12/22 07:14:30;;;;;;;90.95;30.00;;;7.10;99.90;;;;;;5013120;28;20034;-79
2022/12/22 07:16:56;;;;;;;83.25;27.48;;;7.00;99.90;;;;;;5019810;28;20110;-81
2022/12/22 07:19:22;;;;;;;84.55;28.77;;;7.00;99.90;;;;;;5016464;28;20048;-81
2022/12/22 07:21:47;;;;;;;90.00;28.48;;;7.00;99.90;;;;;;5015066;28;20060;-84
2022/12/22 07:24:15;;;;;;;142.25;31.52;;;7.80;99.90;;;;;;5020195;28;20036;-84
2022/12/22 07:26:41;;;;;;;90.65;26.08;;;7.10;99.90;;;;;;5022024;28;20037;-81
2022/12/22 07:29:06;;;;;;;93.05;29.92;;;7.10;99.90;;;;;;5011903;28;20141;-80
2022/12/22 07:31:32;;;;;;;98.80;30.50;;;7.10;99.90;;;;;;5014774;28;20038;-81
2022/12/22 07:33:57;;;;;;;98.20;29.92;;;7.20;99.90;;;;;;5020702;28;20041;-80
2022/12/22 07:36:23;;;;;;;124.35;33.08;;;7.20;99.90;;;;;;5008081;28;20037;-80
2022/12/22 07:38:50;;;;;;;105.93;29.52;;;7.30;99.90;;;;;;5010395;28;20554;-80
2022/12/22 07:44:03;;;;;;;97.45;27.75;;;7.30;99.90;;;;;;5017970;28;20489;-79
2022/12/22 07:46:32;;;;;;;98.10;26.02;;;7.30;99.90;;;;;;5013490;28;20045;-79
2022/12/22 07:51:43;;;;;;;76.07;22.92;;;7.30;99.90;;;;;;5008473;28;20049;-79
2022/12/22 07:54:11;;;;;;;61.10;21.55;;;7.20;99.90;;;;;;5008214;28;20170;-80
2022/12/22 07:56:37;;;;;;;65.78;22.13;;;7.20;99.90;;;;;;5012056;28;20512;-79
2022/12/22 07:59:03;;;;;;;53.60;20.33;;;7.20;99.90;;;;;;5015259;28;20033;-79
2022/12/22 08:01:28;;;;;;;57.83;20.50;;;7.10;99.90;;;;;;5020270;28;20041;-80
2022/12/22 08:03:55;;;;;;;46.30;17.27;;;7.10;99.90;;;;;;5017463;28;20087;-79
2022/12/22 08:06:21;;;;;;;48.47;19.33;;;7.10;99.90;;;;;;5009245;28;20045;-79
2022/12/22 08:08:46;;;;;;;48.67;17.00;;;7.10;99.90;;;;;;5007599;28;20040;-80
2022/12/22 08:11:13;;;;;;;39.60;15.98;;;7.00;99.90;;;;;;5007244;28;20461;-79
2022/12/22 08:13:38;;;;;;;53.50;17.13;;;7.00;99.90;;;;;;5010220;28;20065;-79
2022/12/22 08:16:06;;;;;;;40.08;16.00;;;6.90;99.90;;;;;;5018630;28;20132;-79
2022/12/22 08:18:32;;;;;;;41.28;15.18;;;6.90;99.90;;;;;;5014941;28;20484;-79
2022/12/22 08:20:57;;;;;;;43.58;17.15;;;6.90;99.90;;;;;;5013652;28;20084;-81
2022/12/22 08:23:23;;;;;;;48.42;17.17;;;6.90;99.90;;;;;;5013489;28;20033;-81
2022/12/22 08:25:57;;;;;;;45.10;16.48;;;7.20;99.90;;;;;;5010501;28;20488;-81
2022/12/22 08:28:22;;;;;;;37.87;15.30;;;7.00;99.90;;;;;;5005993;28;20073;-80
2022/12/22 08:30:48;;;;;;;34.10;13.60;;;7.00;99.90;;;;;;5016807;28;20829;-81
2022/12/22 08:33:14;;;;;;;31.25;13.38;;;7.00;99.90;;;;;;5013000;28;20476;-80
2022/12/22 08:35:40;;;;;;;33.65;14.02;;;7.00;99.90;;;;;;5024375;28;20065;-81
2022/12/22 08:38:06;;;;;;;43.42;13.40;;;7.20;99.90;;;;;;5010321;28;20063;-81
2022/12/22 08:40:32;;;;;;;37.15;13.98;;;6.90;99.90;;;;;;5014515;28;20038;-81
2022/12/22 08:43:03;;;;;;;48.70;15.77;;;6.90;99.90;;;;;;5009024;28;20045;-82
2022/12/22 08:45:29;;;;;;;38.78;14.50;;;6.90;99.90;;;;;;5014448;28;20064;-81
2022/12/22 08:47:54;;;;;;;38.50;14.85;;;7.00;99.90;;;;;;5007375;28;20046;-81
2022/12/22 08:50:20;;;;;;;40.47;13.75;;;6.90;99.90;;;;;;5011121;28;20100;-81
2022/12/22 08:52:46;;;;;;;40.15;14.68;;;6.90;99.90;;;;;;5007375;28;20484;-81
2022/12/22 08:55:11;;;;;;;37.80;13.90;;;6.90;99.90;;;;;;5014444;28;20030;-80
2022/12/22 08:57:37;;;;;;;37.72;14.65;;;6.90;99.90;;;;;;5008264;28;20056;-80
2022/12/22 09:00:07;;;;;;;47.50;15.50;;;6.90;99.90;;;;;;5011681;28;20080;-81
2022/12/22 09:02:33;;;;;;;33.30;14.05;;;6.90;99.90;;;;;;5020094;28;20041;-80
2022/12/22 09:04:59;;;;;;;44.20;17.08;;;6.90;99.90;;;;;;5014373;28;20041;-80
2022/12/22 09:07:25;;;;;;;40.85;15.73;;;6.90;99.90;;;;;;5008386;28;20041;-80
2022/12/22 09:09:50;;;;;;;40.95;14.50;;;6.90;99.90;;;;;;5011426;28;20782;-80
2022/12/22 09:12:16;;;;;;;38.28;15.25;;;6.90;99.90;;;;;;5016446;28;20125;-80
2022/12/22 09:14:42;;;;;;;40.55;15.65;;;6.90;99.90;;;;;;5012737;28;20041;-80
2022/12/22 09:17:07;;;;;;;36.92;14.73;;;7.10;99.90;;;;;;5019294;28;20046;-79
2022/12/22 09:19:33;;;;;;;39.92;15.73;;;6.90;99.90;;;;;;5010912;28;20029;-81
2022/12/22 09:21:59;;;;;;;35.15;14.55;;;6.90;99.90;;;;;;5008443;28;20073;-79
2022/12/22 09:24:24;;;;;;;38.08;15.05;;;6.90;99.90;;;;;;5017505;28;20029;-79
2022/12/22 09:26:50;;;;;;;36.47;13.63;;;6.90;99.90;;;;;;5023075;28;20037;-80
2022/12/22 09:29:16;;;;;;;44.58;15.80;;;6.90;99.90;;;;;;5013045;28;20551;-80
2022/12/22 09:31:42;;;;;;;45.47;16.23;;;6.90;99.90;;;;;;5016212;28;20049;-79
2022/12/22 09:34:08;;;;;;;33.10;13.50;;;6.90;99.90;;;;;;5014829;28;20065;-79
2022/12/22 09:36:33;;;;;;;40.08;13.35;;;6.90;99.90;;;;;;5019202;28;20502;-79
2022/12/22 09:39:07;;;;;;;22.25;10.20;;;6.90;99.90;;;;;;5018943;28;20038;-79
2022/12/22 09:41:40;;;;;;;23.83;9.25;;;6.90;99.90;;;;;;5012152;28;20115;-79
2022/12/22 09:44:23;;;;;;;21.55;9.63;;;6.80;99.90;;;;;;5012102;28;20053;-79
2022/12/22 09:46:49;;;;;;;25.00;10.63;;;6.80;99.90;;;;;;5020787;28;20044;-79
2022/12/22 09:49:17;;;;;;;37.25;11.18;;;6.80;99.90;;;;;;5014382;28;20174;-79
2022/12/22 09:51:47;;;;;;;38.63;9.88;;;6.70;99.90;;;;;;5017637;28;20073;-80
2022/12/22 09:54:14;;;;;;;18.98;9.23;;;6.70;99.90;;;;;;5012698;28;20076;-80
2022/12/22 09:56:40;;;;;;;20.67;8.85;;;6.70;99.90;;;;;;5013263;28;20034;-79
2022/12/22 09:59:17;;;;;;;17.02;8.35;;;6.70;99.90;;;;;;5017864;28;20050;-79
2022/12/22 10:02:14;;;;;;;23.48;9.07;;;6.60;99.90;;;;;;5023913;28;20038;-80
2022/12/22 10:05:17;;;;;;;26.83;10.07;;;6.70;99.90;;;;;;5015473;28;20048;-77
2022/12/22 10:07:43;;;;;;;28.23;9.20;;;6.60;99.90;;;;;;5014385;28;20042;-77
2022/12/22 10:10:23;;;;;;;16.02;7.68;;;6.70;99.90;;;;;;5016987;28;20485;-77
2022/12/22 10:12:50;;;;;;;14.88;7.60;;;6.60;99.90;;;;;;5016205;28;20048;-77
2022/12/22 10:15:16;;;;;;;19.08;7.65;;;6.60;99.90;;;;;;5016325;28;20049;-77
2022/12/22 10:17:42;;;;;;;19.90;8.98;;;6.60;99.90;;;;;;5010512;28;20416;-78
2022/12/22 10:20:13;;;;;;;18.38;7.90;;;6.70;99.90;;;;;;5014405;28;20042;-77
2022/12/22 10:22:47;;;;;;;15.85;8.13;;;6.60;99.90;;;;;;5019380;28;20030;-77
2022/12/22 10:25:25;;;;;;;;;;;6.60;99.90;;;;;;5024758;28;20048;-77
2022/12/22 10:27:53;;;;;;;16.33;7.07;;;6.70;99.90;;;;;;5012868;28;19928;-77
2022/12/22 10:30:30;;;;;;;16.92;7.63;;;6.70;99.90;;;;;;5019910;28;20049;-77
2022/12/22 10:33:07;;;;;;;18.42;7.05;;;6.80;99.90;;;;;;5010638;28;20757;-77
2022/12/22 10:35:50;;;;;;;30.88;7.32;;;6.80;99.90;;;;;;5021038;28;20048;-77
2022/12/22 10:38:21;;;;;;;17.08;7.03;;;6.90;99.90;;;;;;5030951;28;20459;-77
2022/12/22 10:40:51;;;;;;;18.08;7.25;;;6.90;99.90;;;;;;5008687;28;20062;-77
2022/12/22 10:43:26;;;;;;;19.77;8.77;;;7.00;99.90;;;;;;5003247;28;20136;-77
2022/12/22 10:45:54;;;;;;;16.95;7.65;;;7.10;99.90;;;;;;5020500;28;20053;-77
2022/12/22 10:48:34;;;;;;;16.75;7.85;;;7.20;99.90;;;;;;5010203;28;20042;-77
2022/12/22 10:51:01;;;;;;;15.27;7.60;;;7.20;99.90;;;;;;5028910;28;20099;-78
2022/12/22 10:53:59;;;;;;;19.35;9.35;;;7.30;99.90;;;;;;5017796;28;20093;-78
2022/12/22 10:56:28;;;;;;;21.85;8.45;;;7.30;99.90;;;;;;4995930;28;20052;-77
2022/12/22 10:59:00;;;;;;;16.33;7.82;;;7.40;99.90;;;;;;5010525;28;20045;-77
2022/12/22 11:01:29;;;;;;;18.10;6.88;;;7.50;99.90;;;;;;5012515;28;20143;-77
2022/12/22 11:03:54;;;;;;;18.27;7.57;;;7.50;99.90;;;;;;5010433;28;20041;-77
2022/12/22 11:06:20;;;;;;;18.02;7.38;;;7.50;99.90;;;;;;5012756;28;20037;-77
2022/12/22 11:08:46;;;;;;;16.88;7.72;;;7.50;99.90;;;;;;5014787;28;20129;-77
2022/12/22 11:11:37;;;;;;;20.13;7.90;;;7.60;99.90;;;;;;5012215;28;20038;-77
2022/12/22 11:14:05;;;;;;;22.75;8.93;;;7.60;99.90;;;;;;5025604;28;20083;-77
2022/12/22 11:16:39;;;;;;;18.10;7.15;;;7.60;99.90;;;;;;5015737;28;20053;-77
2022/12/22 11:19:29;;;;;;;20.88;7.30;;;7.60;99.90;;;;;;5013696;28;20125;-78
2022/12/22 11:21:54;;;;;;;18.10;7.45;;;7.50;99.90;;;;;;5009357;28;20103;-77
2022/12/22 11:24:47;;;;;;;19.70;7.25;;;7.50;99.90;;;;;;5008432;28;20045;-77
2022/12/22 11:27:30;;;;;;;14.55;6.38;;;7.50;99.90;;;;;;5013179;28;20056;-77
2022/12/22 11:30:12;;;;;;;15.27;6.93;;;7.50;99.90;;;;;;5012911;28;20049;-77
2022/12/22 11:33:19;;;;;;;19.50;6.43;;;7.50;99.90;;;;;;5013831;28;20080;-77
2022/12/22 11:36:04;;;;;;;21.05;7.50;;;7.60;99.90;;;;;;5020462;28;20034;-77
2022/12/22 11:38:39;;;;;;;20.30;7.03;;;7.70;99.90;;;;;;5017014;28;20085;-77
2022/12/22 11:41:27;;;;;;;17.45;6.55;;;7.70;99.90;;;;;;5024174;28;20053;-78
2022/12/22 11:43:56;;;;;;;14.48;5.80;;;7.80;99.90;;;;;;5010252;28;20147;-77
2022/12/22 11:46:55;;;;;;;13.77;5.43;;;7.90;99.90;;;;;;5009602;28;20050;-77
2022/12/22 11:49:27;;;;;;;16.27;6.55;;;8.00;99.90;;;;;;5005363;28;20100;-77
2022/12/22 11:52:31;;;;;;;13.90;5.45;;;8.30;99.90;;;;;;5014336;28;20133;-77
2022/12/22 11:55:15;;;;;;;12.73;4.73;;;8.30;99.90;;;;;;5013882;28;20058;-78
2022/12/22 11:58:07;;;;;;;15.13;4.63;;;8.40;99.90;;;;;;5018438;28;20138;-77
2022/12/22 12:00:41;;;;;;;12.18;5.10;;;8.50;99.90;;;;;;5009487;28;20476;-77
2022/12/22 12:03:32;;;;;;;12.88;5.43;;;8.60;99.90;;;;;;5018941;28;20054;-77
2022/12/22 12:06:06;;;;;;;13.30;4.82;;;8.60;99.90;;;;;;5013647;28;20073;-77
2022/12/22 12:08:45;;;;;;;;;;;8.60;99.90;;;;;;5019673;28;20876;-77
2022/12/22 12:11:31;;;;;;;15.90;5.53;;;8.60;99.90;;;;;;5011842;28;20545;-77
2022/12/22 12:14:28;;;;;;;14.88;4.53;;;8.60;99.90;;;;;;5009999;28;20046;-77
2022/12/22 12:16:57;;;;;;;17.25;5.28;;;8.70;99.90;;;;;;5002906;28;20049;-77
2022/12/22 12:19:54;;;;;;;11.43;4.55;;;8.80;99.90;;;;;;5018358;28;20049;-77
2022/12/22 12:22:31;;;;;;;12.32;4.78;;;8.80;99.90;;;;;;5007547;28;20396;-79
2022/12/22 12:25:10;;;;;;;13.60;4.72;;;8.90;99.90;;;;;;5000697;28;20049;-78
2022/12/22 12:28:02;;;;;;;14.35;5.40;;;8.90;99.90;;;;;;5016862;28;20045;-79
2022/12/22 12:30:37;;;;;;;14.98;5.50;;;8.90;99.90;;;;;;5017698;28;20038;-80
2022/12/22 12:33:32;;;;;;;12.43;5.22;;;8.90;99.90;;;;;;5010852;28;20041;-80
2022/12/22 12:36:31;;;;;;;13.50;5.22;;;8.90;99.90;;;;;;5007418;28;20635;-80
2022/12/22 12:39:27;;;;;;;11.45;5.32;;;8.90;99.90;;;;;;5020577;28;20049;-80
2022/12/22 12:42:03;;;;;;;13.82;4.90;;;8.90;99.90;;;;;;5018613;28;20064;-80
2022/12/22 12:44:34;;;;;;;16.33;4.57;;;9.20;99.90;;;;;;5000924;28;20478;-80
2022/12/22 12:47:23;;;;;;;10.80;5.00;;;8.90;99.90;;;;;;5006703;28;20113;-81
2022/12/22 12:49:52;;;;;;;11.02;4.13;;;8.80;99.90;;;;;;5016825;28;20054;-80
2022/12/22 12:52:37;;;;;;;12.60;4.30;;;8.80;99.90;;;;;;5017764;28;20041;-80
2022/12/22 12:55:22;;;;;;;17.00;4.50;;;9.10;99.90;;;;;;5007537;28;20653;-81
2022/12/22 12:57:48;;;;;;;14.18;4.38;;;8.70;99.90;;;;;;5021479;28;20029;-81
2022/12/22 13:00:32;;;;;;;13.63;4.38;;;8.70;99.90;;;;;;5018741;28;20091;-80
2022/12/22 13:03:03;;;;;;;13.60;4.90;;;8.70;99.90;;;;;;5015123;28;21540;-81
2022/12/22 13:05:55;;;;;;;12.57;5.03;;;8.60;99.90;;;;;;5022592;28;20049;-80
2022/12/22 13:08:22;;;;;;;10.48;4.68;;;8.70;99.90;;;;;;5014974;28;20112;-82
2022/12/22 13:10:54;;;;;;;14.38;4.78;;;8.60;99.90;;;;;;5007435;28;20045;-82
2022/12/22 13:13:25;;;;;;;14.70;4.07;;;8.90;99.90;;;;;;5025730;28;20037;-79
2022/12/22 13:16:00;;;;;;;12.02;4.15;;;8.70;99.90;;;;;;5011957;28;20052;-80
2022/12/22 13:18:27;;;;;;;10.05;4.20;;;8.70;99.90;;;;;;5028270;28;20510;-79
2022/12/22 13:21:23;;;;;;;18.92;4.70;;;8.70;99.90;;;;;;5026182;28;20116;-79
2022/12/22 13:23:55;;;;;;;15.00;3.88;;;8.70;99.90;;;;;;5025630;28;20050;-79
2022/12/22 13:26:37;;;;;;;11.38;3.47;;;8.70;99.90;;;;;;5022942;28;20045;-80
2022/12/22 13:29:08;;;;;;;12.40;3.60;;;8.70;99.90;;;;;;5020301;28;20041;-80
2022/12/22 13:31:46;;;;;;;19.13;3.42;;;8.70;99.90;;;;;;5016600;28;20196;-80
2022/12/22 13:34:34;;;;;;;14.30;3.15;;;8.90;99.90;;;;;;5019990;28;20048;-79
2022/12/22 13:37:14;;;;;;;10.63;3.25;;;8.80;99.90;;;;;;5020033;28;20057;-79
2022/12/22 13:39:40;;;;;;;13.05;3.60;;;8.90;99.90;;;;;;5013879;28;20377;-79
2022/12/22 13:42:07;;;;;;;13.05;4.63;;;8.90;99.90;;;;;;5020889;28;20106;-79
2022/12/22 13:44:33;;;;;;;17.10;5.07;;;9.00;99.90;;;;;;5018503;28;20492;-80
2022/12/22 13:47:05;;;;;;;14.32;3.80;;;9.00;99.90;;;;;;5016629;28;20069;-80
2022/12/22 13:49:33;;;;;;;11.18;4.50;;;9.00;99.90;;;;;;5017533;28;20120;-80
2022/12/22 13:52:00;;;;;;;13.20;4.30;;;9.00;99.90;;;;;;5017727;28;20558;-81
2022/12/22 13:54:31;;;;;;;18.17;4.38;;;9.00;99.90;;;;;;5026103;28;20503;-81
2022/12/22 13:56:58;;;;;;;13.02;3.90;;;9.00;99.90;;;;;;5012311;28;20046;-80
2022/12/22 13:59:27;;;;;;;11.65;4.07;;;9.50;99.90;;;;;;5027011;28;20042;-80
2022/12/22 14:01:59;;;;;;;12.48;3.88;;;9.00;99.90;;;;;;5010841;28;20033;-81
2022/12/22 14:04:26;;;;;;;12.68;3.72;;;9.00;99.90;;;;;;5027291;28;20033;-80
2022/12/22 14:06:53;;;;;;;14.27;3.40;;;9.00;99.90;;;;;;5020730;28;20037;-80
2022/12/22 14:09:24;;;;;;;18.38;3.72;;;9.10;99.90;;;;;;5018778;28;20048;-84
2022/12/22 14:12:07;;;;;;;9.93;3.50;;;9.10;99.90;;;;;;5026317;28;20146;-81
2022/12/22 14:14:38;;;;;;;11.10;2.97;;;9.10;99.90;;;;;;5017916;28;20055;-80
2022/12/22 14:17:24;;;;;;;15.50;3.17;;;9.10;99.90;;;;;;5017795;28;20527;-81
2022/12/22 14:19:54;;;;;;;9.07;2.75;;;9.10;99.90;;;;;;5009433;28;20438;-82
2022/12/22 14:22:35;;;;;;;13.77;2.72;;;9.20;99.90;;;;;;5018795;28;20107;-82
2022/12/22 14:25:23;;;;;;;7.97;2.85;;;9.60;99.90;;;;;;5029835;28;20049;-81
2022/12/22 14:27:52;;;;;;;10.95;2.95;;;9.10;99.90;;;;;;5017757;28;20049;-82
2022/12/22 14:30:20;;;;;;;11.52;2.97;;;9.20;99.90;;;;;;5003787;28;20045;-82
2022/12/22 14:32:48;;;;;;;8.63;2.70;;;9.10;99.90;;;;;;5002819;28;20049;-81
2022/12/22 14:35:20;;;;;;;10.60;2.38;;;9.10;99.90;;;;;;5018413;28;20154;-82
2022/12/22 14:37:54;;;;;;;10.43;2.88;;;9.40;99.90;;;;;;5018403;28;20052;-81
2022/12/22 14:40:30;;;;;;;;;;;9.10;99.90;;;;;;5013545;28;20049;-81
2022/12/22 14:42:58;;;;;;;9.88;2.30;;;9.10;99.90;;;;;;5010973;28;19921;-81
2022/12/22 14:45:24;;;;;;;11.15;2.40;;;9.10;99.90;;;;;;5020143;28;20167;-82
2022/12/22 14:47:53;;;;;;;7.90;2.50;;;9.30;99.90;;;;;;5017203;28;20107;-81
2022/12/22 14:50:25;;;;;;;10.05;2.40;;;8.90;99.90;;;;;;5016268;28;20050;-81
2022/12/22 14:52:54;;;;;;;16.13;5.25;;;8.90;99.90;;;;;;5015064;28;20042;-82
2022/12/22 14:55:36;;;;;;;9.40;4.97;;;8.80;99.90;;;;;;5014683;28;20045;-81
2022/12/22 14:58:16;;;;;;;8.90;3.38;;;8.80;99.90;;;;;;5022398;28;20094;-81
2022/12/22 15:00:47;;;;;;;13.65;6.07;;;8.70;99.90;;;;;;5013562;28;20053;-81
2022/12/22 15:03:32;;;;;;;17.67;7.05;;;8.60;99.90;;;;;;5024655;28;20488;-79
2022/12/22 15:06:33;;;;;;;;;;;8.60;99.90;;;;;;5016307;28;20040;-81
2022/12/22 15:09:07;;;;;;;7.60;3.40;;;8.50;99.90;;;;;;4958889;28;19921;-80
2022/12/22 15:11:35;;;;;;;12.18;3.88;;;8.40;99.90;;;;;;4962600;28;20057;-80
2022/12/22 15:14:03;;;;;;;10.27;3.22;;;8.40;99.90;;;;;;4957628;28;20417;-80
2022/12/22 15:16:29;;;;;;;12.98;3.50;;;8.40;99.90;;;;;;4963333;28;20047;-80
2022/12/22 15:18:55;;;;;;;12.25;4.88;;;8.40;99.90;;;;;;4939981;28;20061;-82
2022/12/22 15:21:21;;;;;;;11.73;4.63;;;8.30;99.90;;;;;;4946707;28;20438;-80
2022/12/22 15:23:47;;;;;;;11.38;4.18;;;8.30;99.90;;;;;;4963214;28;20117;-81
2022/12/22 15:26:13;;;;;;;14.20;4.57;;;8.20;99.90;;;;;;4955755;28;20038;-80
2022/12/22 15:28:39;;;;;;;11.65;3.78;;;8.20;99.90;;;;;;4948388;28;20047;-80
2022/12/22 15:31:13;;;;;;;10.35;3.72;;;8.20;99.90;;;;;;4949736;28;20057;-80
2022/12/22 15:33:38;;;;;;;13.00;4.03;;;8.30;99.90;;;;;;4946843;28;20059;-80
2022/12/22 15:36:05;;;;;;;11.20;3.70;;;8.10;99.90;;;;;;4964986;28;20465;-80
2022/12/22 15:38:31;;;;;;;9.38;3.83;;;8.30;99.90;;;;;;4941260;28;20060;-80
2022/12/22 15:40:57;;;;;;;9.88;3.65;;;8.30;99.90;;;;;;4948821;28;20847;-81
2022/12/22 15:43:23;;;;;;;13.13;4.30;;;8.40;99.90;;;;;;4979294;28;20077;-81
2022/12/22 15:45:49;;;;;;;9.60;3.70;;;8.30;99.90;;;;;;5001363;28;20037;-83
2022/12/22 15:48:24;;;;;;;10.73;3.40;;;8.30;99.90;;;;;;4998253;28;20044;-82
2022/12/22 15:50:50;;;;;;;9.35;3.50;;;8.30;99.90;;;;;;5018458;28;20046;-82
2022/12/22 15:53:18;;;;;;;16.48;3.95;;;8.30;99.90;;;;;;5014112;28;20042;-81
2022/12/22 15:55:47;;;;;;;11.70;3.30;;;8.30;99.90;;;;;;5022993;28;20034;-82
2022/12/22 15:58:16;;;;;;;8.43;2.92;;;8.20;99.90;;;;;;5009344;28;20048;-83
2022/12/22 16:00:42;;;;;;;11.85;3.95;;;8.20;99.90;;;;;;5018006;28;20037;-83
2022/12/22 16:03:10;;;;;;;11.07;3.65;;;8.20;99.90;;;;;;5016332;28;20068;-84
2022/12/22 16:05:36;;;;;;;8.50;2.83;;;8.40;99.90;;;;;;5016682;28;20072;-82
2022/12/22 16:08:03;;;;;;;10.55;3.30;;;8.10;99.90;;;;;;5012613;28;20049;-81
2022/12/22 16:10:32;;;;;;;10.10;3.63;;;8.10;99.90;;;;;;5022585;28;20042;-81
2022/12/22 16:13:01;;;;;;;14.07;4.30;;;8.10;99.90;;;;;;5011800;28;20056;-81
2022/12/22 16:15:30;;;;;;;8.85;4.15;;;8.10;99.90;;;;;;5015609;28;20042;-82
2022/12/22 16:17:56;;;;;;;10.27;3.83;;;8.10;99.90;;;;;;5012917;28;20049;-81
2022/12/22 16:20:23;;;;;;;11.88;4.80;;;8.10;99.90;;;;;;5012751;28;20041;-81
2022/12/22 16:22:51;;;;;;;9.55;4.72;;;8.10;99.90;;;;;;5022407;28;20088;-81
2022/12/22 16:25:22;;;;;;;16.05;5.65;;;8.00;99.90;;;;;;5008127;28;20085;-81
2022/12/22 16:27:49;;;;;;;10.35;5.53;;;7.80;99.90;;;;;;5011503;28;20042;-81
2022/12/22 16:30:23;;;;;;;13.23;6.40;;;8.20;99.90;;;;;;5009228;28;20041;-81
2022/12/22 16:32:50;;;;;;;16.55;6.55;;;8.00;99.90;;;;;;5013616;28;20048;-81
2022/12/22 16:35:19;;;;;;;12.65;6.97;;;8.00;99.90;;;;;;5012545;28;20473;-81
2022/12/22 16:37:47;;;;;;;12.90;6.47;;;8.00;99.90;;;;;;5014621;28;20045;-81
2022/12/22 16:40:13;;;;;;;14.25;6.32;;;8.00;99.90;;;;;;5035090;28;20132;-81
2022/12/22 16:42:44;;;;;;;12.90;6.60;;;8.00;99.90;;;;;;4998245;28;20048;-82